Celestial — WDE5068 — position and weather

sailwx.info

Track history (hours):
 
Tides and Currents Weather Stations Pressure Air Temp Water Temp Dewpoint Dewpoint Depression Visibility Wind Speed Wind Dir Waves Ship Positions

Celestial

Owner: Entertainment Cruises, New York, NY. More information available from US FCC via Universal Licensing System and Coast Guard Vessel Documentation Center.

Last reported at 2018-Jun-25 02:49 UTC. Time now 2018-Jun-25 17:39 UTC.
Position N 40°45' W 074°01'.

Length 66 m; draft 3.1 m.

Type: Passenger vessel. MMSI: 367361620.

Date/timePositionNaut miles runAvg speedWind from/ knotsBaromVisibWave heightAir tempDewpointWater temp
2018-Jun-25 02:49N 40°45' W 074°01'1 2.4
2018-Jun-25 02:30N 40°46' W 074°01'0 0.1
2018-Jun-25 02:00N 40°46' W 074°01'2 3.2
2018-Jun-25 01:30N 40°44' W 074°01'3 6.0
2018-Jun-25 01:00N 40°41' W 074°03'2 4.3
2018-Jun-25 00:30N 40°42' W 073°60'1 2.2
2018-Jun-25 00:00N 40°42' W 074°01'3 5.0
2018-Jun-24 23:30N 40°45' W 074°01'0 0.0
2018-Jun-24 23:00N 40°45' W 074°01'0 0.0
2018-Jun-24 22:30N 40°45' W 074°01'0 0.0
2018-Jun-24 22:00N 40°45' W 074°01'0 0.0
2018-Jun-24 21:30N 40°45' W 074°01'0 0.0
2018-Jun-24 20:59N 40°45' W 074°01'0 0.0
2018-Jun-24 20:30N 40°45' W 074°01'0 0.0
2018-Jun-24 20:00N 40°45' W 074°01'0 0.0
2018-Jun-24 19:30N 40°45' W 074°01'0 0.0
2018-Jun-24 19:00N 40°45' W 074°01'0 0.0
2018-Jun-24 18:30N 40°45' W 074°01'0 0.0
2018-Jun-24 17:58N 40°45' W 074°01'1 2.9
2018-Jun-24 17:30N 40°44' W 074°01'3 5.3
2018-Jun-24 17:00N 40°41' W 074°03'2 3.1
2018-Jun-24 16:30N 40°42' W 074°01'3 0.2
2018-Jun-24 01:55N 40°45' W 074°01'2 4.2
2018-Jun-24 01:30N 40°43' W 074°01'2 4.0
2018-Jun-24 01:00N 40°41' W 074°02'3 5.4
2018-Jun-24 00:30N 40°43' W 073°59'1 2.9
2018-Jun-24 00:00N 40°42' W 074°01'3 6.9
2018-Jun-23 23:30N 40°45' W 074°01'0 1.0
2018-Jun-23 23:00N 40°45' W 074°01'0 0.0
2018-Jun-23 22:25N 40°45' W 074°01'0 0.0
2018-Jun-23 21:59N 40°45' W 074°01'0 0.0
2018-Jun-23 21:28N 40°45' W 074°01'0 0.0
2018-Jun-23 20:57N 40°45' W 074°01'0 0.0
2018-Jun-23 20:30N 40°45' W 074°01'0 0.0
2018-Jun-23 19:59N 40°45' W 074°01'0 0.0
2018-Jun-23 19:30N 40°45' W 074°01'0 0.0
2018-Jun-23 19:00N 40°45' W 074°01'0 0.0
2018-Jun-23 18:27N 40°45' W 074°01'0 0.0
2018-Jun-23 17:59N 40°45' W 074°01'2 3.4
2018-Jun-23 17:30N 40°43' W 074°01'2 4.8
2018-Jun-23 17:00N 40°41' W 074°03'1 2.8
2018-Jun-23 16:30N 40°42' W 074°01'3 0.2
2018-Jun-23 01:53N 40°45' W 074°01'2 4.2
2018-Jun-23 01:30N 40°43' W 074°01'2 4.4
2018-Jun-23 01:00N 40°41' W 074°02'3 5.7
2018-Jun-23 00:30N 40°43' W 073°59'1 2.6
2018-Jun-23 00:00N 40°42' W 074°00'3 6.0
2018-Jun-22 23:30N 40°45' W 074°01'0 0.6
2018-Jun-22 23:00N 40°45' W 074°01'0 0.0
2018-Jun-22 22:30N 40°45' W 074°01'0 0.0
2018-Jun-22 22:00N 40°45' W 074°01'0 0.0
2018-Jun-22 21:29N 40°45' W 074°01'0 0.0
2018-Jun-22 01:46N 40°45' W 074°01'1 4.7
2018-Jun-22 01:30N 40°43' W 074°01'2 4.6
2018-Jun-22 01:00N 40°41' W 074°02'3 5.4
2018-Jun-22 00:30N 40°43' W 073°59'2 3.2
2018-Jun-22 00:00N 40°42' W 074°01'3 6.3
2018-Jun-21 23:30N 40°45' W 074°01'1 0.0
2018-Jun-21 01:55N 40°45' W 074°01'1 3.4
2018-Jun-21 01:30N 40°44' W 074°01'2 5.0
2018-Jun-21 01:01N 40°41' W 074°02'2 3.8
2018-Jun-21 00:30N 40°42' W 074°00'1 2.0
2018-Jun-21 00:01N 40°42' W 074°01'3 6.6
2018-Jun-20 23:30N 40°46' W 074°01'1 1.3
2018-Jun-20 22:54N 40°45' W 074°01'0 0.0
2018-Jun-20 01:46N 40°45' W 074°01'1 4.9
2018-Jun-20 01:30N 40°43' W 074°01'2 4.9
2018-Jun-20 01:00N 40°41' W 074°03'2 4.8
2018-Jun-20 00:30N 40°42' W 073°60'1 2.7
2018-Jun-20 00:00N 40°42' W 074°02'4 7.5
2018-Jun-19 23:30N 40°46' W 074°00'1 2.3
2018-Jun-19 23:00N 40°45' W 074°01'0 0.0
2018-Jun-19 01:57N 40°45' W 074°01'2 3.6
2018-Jun-19 01:30N 40°43' W 074°01'2 4.8
2018-Jun-19 01:00N 40°41' W 074°03'2 4.7
2018-Jun-19 00:30N 40°42' W 073°60'1 2.3
2018-Jun-19 00:00N 40°42' W 074°01'4 7.6
2018-Jun-18 23:30N 40°46' W 074°00'1 2.1
2018-Jun-18 23:00N 40°45' W 074°01'0 0.0
2018-Jun-18 22:30N 40°45' W 074°01'0 0.0
2018-Jun-18 22:00N 40°45' W 074°01'0 0.0
2018-Jun-18 21:30N 40°45' W 074°01'0 0.0
2018-Jun-18 21:00N 40°45' W 074°01'0 0.0
2018-Jun-18 20:30N 40°45' W 074°01'0 0.0
2018-Jun-18 20:00N 40°45' W 074°01'0 0.0
2018-Jun-18 19:30N 40°45' W 074°01'0 0.0
2018-Jun-18 19:00N 40°45' W 074°01'0 0.0
2018-Jun-18 18:30N 40°45' W 074°01'0 0.0
2018-Jun-18 18:00N 40°45' W 074°01'1 2.8
2018-Jun-18 17:30N 40°43' W 074°01'2 4.4
2018-Jun-18 17:00N 40°41' W 074°02'1 2.2
2018-Jun-18 16:30N 40°42' W 074°01'3 4.9
2018-Jun-18 15:58N 40°45' W 074°01'0 0.0
2018-Jun-18 01:45N 40°45' W 074°01'1 5.2
2018-Jun-18 01:31N 40°43' W 074°01'2 5.0
2018-Jun-18 01:01N 40°41' W 074°02'2 4.5
2018-Jun-18 00:30N 40°42' W 073°60'1 2.5
2018-Jun-18 00:01N 40°42' W 074°01'3 6.6
2018-Jun-17 23:31N 40°46' W 074°01'1 1.3
2018-Jun-17 22:59N 40°45' W 074°01'0 0.0
2018-Jun-17 22:23N 40°45' W 074°01'0 0.0
2018-Jun-17 22:00N 40°45' W 074°01'0 0.0
2018-Jun-17 21:30N 40°45' W 074°01'0 0.0
2018-Jun-17 21:00N 40°45' W 074°01'0 0.0
2018-Jun-17 20:31N 40°45' W 074°01'0 0.0
2018-Jun-17 20:01N 40°45' W 074°01'0 0.0
2018-Jun-17 19:30N 40°45' W 074°01'0 0.0
2018-Jun-17 19:00N 40°45' W 074°01'0 0.1
2018-Jun-17 18:30N 40°45' W 074°01'2 2.8
2018-Jun-17 17:59N 40°43' W 074°01'2 4.9
2018-Jun-17 17:31N 40°41' W 074°02'2 4.9
2018-Jun-17 17:01N 40°42' W 073°60'2 3.3
2018-Jun-17 16:30N 40°44' W 074°01'1 2.7
2018-Jun-17 16:01N 40°45' W 074°01'0 0.0
2018-Jun-17 01:55N 40°45' W 074°01'2 3.8
2018-Jun-17 01:31N 40°43' W 074°01'2 4.1
2018-Jun-17 01:01N 40°42' W 074°02'2 4.7
2018-Jun-17 00:31N 40°42' W 073°60'1 2.8
2018-Jun-17 00:01N 40°42' W 074°01'4 7.3
2018-Jun-16 23:31N 40°46' W 074°00'1 0.2
2018-Jun-16 18:11N 40°45' W 074°01'0 0.0
2018-Jun-16 18:00N 40°45' W 074°01'1 2.7
2018-Jun-16 17:30N 40°44' W 074°01'2 4.4
2018-Jun-16 17:00N 40°42' W 074°02'1 2.5
2018-Jun-16 16:30N 40°43' W 074°01'2 4.3
2018-Jun-16 15:58N 40°45' W 074°01'0 0.0
2018-Jun-16 01:52N 40°45' W 074°01'2 4.8
2018-Jun-16 01:30N 40°43' W 074°01'2 4.0
2018-Jun-16 01:00N 40°41' W 074°02'2 4.8
2018-Jun-16 00:30N 40°42' W 073°60'0 1.0
2018-Jun-16 00:00N 40°42' W 073°59'3 5.4
2018-Jun-15 23:30N 40°45' W 074°01'0 0.9
2018-Jun-15 23:00N 40°45' W 074°01'0 0.0
2018-Jun-15 22:27N 40°45' W 074°01'0 0.0
2018-Jun-15 22:00N 40°45' W 074°01'0 0.0
2018-Jun-15 21:25N 40°45' W 074°01'0 0.0
2018-Jun-15 21:00N 40°45' W 074°01'0 0.0
2018-Jun-15 20:18N 40°45' W 074°01'0 0.0
2018-Jun-15 19:37N 40°45' W 074°01'0 0.0
2018-Jun-15 19:29N 40°45' W 074°01'0 0.0
2018-Jun-15 18:45N 40°45' W 074°01'0 0.0
2018-Jun-15 18:20N 40°45' W 074°01'0 0.0
2018-Jun-15 18:00N 40°45' W 074°01'1 3.0
2018-Jun-15 17:30N 40°43' W 074°01'3 5.2
2018-Jun-15 17:00N 40°41' W 074°03'1 3.0
2018-Jun-15 16:30N 40°42' W 074°01'3 5.2
2018-Jun-15 15:59N 40°45' W 074°01'  
Track history (hours):
 
Tides and Currents Weather Stations Pressure Air Temp Water Temp Dewpoint Dewpoint Depression Visibility Wind Speed Wind Dir Waves Ship Positions

Celestial

Owner: Entertainment Cruises, New York, NY. More information available from US FCC via Universal Licensing System and Coast Guard Vessel Documentation Center.

Last reported at 2018-Jun-25 02:49 UTC. Time now 2018-Jun-25 17:39 UTC.
Position N 40°45' W 074°01'.

Length 66 m; draft 3.1 m.

Type: Passenger vessel. MMSI: 367361620.

Date/timePositionNaut miles runAvg speedWind from/ knotsBaromVisibWave heightAir tempDewpointWater temp
2018-Jun-25 02:49N 40°45' W 074°01'1 2.4
2018-Jun-25 02:30N 40°46' W 074°01'0 0.1
2018-Jun-25 02:00N 40°46' W 074°01'2 3.2
2018-Jun-25 01:30N 40°44' W 074°01'3 6.0
2018-Jun-25 01:00N 40°41' W 074°03'2 4.3
2018-Jun-25 00:30N 40°42' W 073°60'1 2.2
2018-Jun-25 00:00N 40°42' W 074°01'3 5.0
2018-Jun-24 23:30N 40°45' W 074°01'0 0.0
2018-Jun-24 23:00N 40°45' W 074°01'0 0.0
2018-Jun-24 22:30N 40°45' W 074°01'0 0.0
2018-Jun-24 22:00N 40°45' W 074°01'0 0.0
2018-Jun-24 21:30N 40°45' W 074°01'0 0.0
2018-Jun-24 20:59N 40°45' W 074°01'0 0.0
2018-Jun-24 20:30N 40°45' W 074°01'0 0.0
2018-Jun-24 20:00N 40°45' W 074°01'0 0.0
2018-Jun-24 19:30N 40°45' W 074°01'0 0.0
2018-Jun-24 19:00N 40°45' W 074°01'0 0.0
2018-Jun-24 18:30N 40°45' W 074°01'0 0.0
2018-Jun-24 17:58N 40°45' W 074°01'1 2.9
2018-Jun-24 17:30N 40°44' W 074°01'3 5.3
2018-Jun-24 17:00N 40°41' W 074°03'2 3.1
2018-Jun-24 16:30N 40°42' W 074°01'3 0.2
2018-Jun-24 01:55N 40°45' W 074°01'2 4.2
2018-Jun-24 01:30N 40°43' W 074°01'2 4.0
2018-Jun-24 01:00N 40°41' W 074°02'3 5.4
2018-Jun-24 00:30N 40°43' W 073°59'1 2.9
2018-Jun-24 00:00N 40°42' W 074°01'3 6.9
2018-Jun-23 23:30N 40°45' W 074°01'0 1.0
2018-Jun-23 23:00N 40°45' W 074°01'0 0.0
2018-Jun-23 22:25N 40°45' W 074°01'0 0.0
2018-Jun-23 21:59N 40°45' W 074°01'0 0.0
2018-Jun-23 21:28N 40°45' W 074°01'0 0.0
2018-Jun-23 20:57N 40°45' W 074°01'0 0.0
2018-Jun-23 20:30N 40°45' W 074°01'0 0.0
2018-Jun-23 19:59N 40°45' W 074°01'0 0.0
2018-Jun-23 19:30N 40°45' W 074°01'0 0.0
2018-Jun-23 19:00N 40°45' W 074°01'0 0.0
2018-Jun-23 18:27N 40°45' W 074°01'0 0.0
2018-Jun-23 17:59N 40°45' W 074°01'2 3.4
2018-Jun-23 17:30N 40°43' W 074°01'2 4.8
2018-Jun-23 17:00N 40°41' W 074°03'1 2.8
2018-Jun-23 16:30N 40°42' W 074°01'3 0.2
2018-Jun-23 01:53N 40°45' W 074°01'2 4.2
2018-Jun-23 01:30N 40°43' W 074°01'2 4.4
2018-Jun-23 01:00N 40°41' W 074°02'3 5.7
2018-Jun-23 00:30N 40°43' W 073°59'1 2.6
2018-Jun-23 00:00N 40°42' W 074°00'3 6.0
2018-Jun-22 23:30N 40°45' W 074°01'0 0.6
2018-Jun-22 23:00N 40°45' W 074°01'0 0.0
2018-Jun-22 22:30N 40°45' W 074°01'0 0.0
2018-Jun-22 22:00N 40°45' W 074°01'0 0.0
2018-Jun-22 21:29N 40°45' W 074°01'0 0.0
2018-Jun-22 01:46N 40°45' W 074°01'1 4.7
2018-Jun-22 01:30N 40°43' W 074°01'2 4.6
2018-Jun-22 01:00N 40°41' W 074°02'3 5.4
2018-Jun-22 00:30N 40°43' W 073°59'2 3.2
2018-Jun-22 00:00N 40°42' W 074°01'3 6.3
2018-Jun-21 23:30N 40°45' W 074°01'1 0.0
2018-Jun-21 01:55N 40°45' W 074°01'1 3.4
2018-Jun-21 01:30N 40°44' W 074°01'2 5.0
2018-Jun-21 01:01N 40°41' W 074°02'2 3.8
2018-Jun-21 00:30N 40°42' W 074°00'1 2.0
2018-Jun-21 00:01N 40°42' W 074°01'3 6.6
2018-Jun-20 23:30N 40°46' W 074°01'1 1.3
2018-Jun-20 22:54N 40°45' W 074°01'0 0.0
2018-Jun-20 01:46N 40°45' W 074°01'1 4.9
2018-Jun-20 01:30N 40°43' W 074°01'2 4.9
2018-Jun-20 01:00N 40°41' W 074°03'2 4.8
2018-Jun-20 00:30N 40°42' W 073°60'1 2.7
2018-Jun-20 00:00N 40°42' W 074°02'4 7.5
2018-Jun-19 23:30N 40°46' W 074°00'1 2.3
2018-Jun-19 23:00N 40°45' W 074°01'0 0.0
2018-Jun-19 01:57N 40°45' W 074°01'2 3.6
2018-Jun-19 01:30N 40°43' W 074°01'2 4.8
2018-Jun-19 01:00N 40°41' W 074°03'2 4.7
2018-Jun-19 00:30N 40°42' W 073°60'1 2.3
2018-Jun-19 00:00N 40°42' W 074°01'4 7.6
2018-Jun-18 23:30N 40°46' W 074°00'1 2.1
2018-Jun-18 23:00N 40°45' W 074°01'0 0.0
2018-Jun-18 22:30N 40°45' W 074°01'0 0.0
2018-Jun-18 22:00N 40°45' W 074°01'0 0.0
2018-Jun-18 21:30N 40°45' W 074°01'0 0.0
2018-Jun-18 21:00N 40°45' W 074°01'0 0.0
2018-Jun-18 20:30N 40°45' W 074°01'0 0.0
2018-Jun-18 20:00N 40°45' W 074°01'0 0.0
2018-Jun-18 19:30N 40°45' W 074°01'0 0.0
2018-Jun-18 19:00N 40°45' W 074°01'0 0.0
2018-Jun-18 18:30N 40°45' W 074°01'0 0.0
2018-Jun-18 18:00N 40°45' W 074°01'1 2.8
2018-Jun-18 17:30N 40°43' W 074°01'2 4.4
2018-Jun-18 17:00N 40°41' W 074°02'1 2.2
2018-Jun-18 16:30N 40°42' W 074°01'3 4.9
2018-Jun-18 15:58N 40°45' W 074°01'0 0.0
2018-Jun-18 01:45N 40°45' W 074°01'1 5.2
2018-Jun-18 01:31N 40°43' W 074°01'2 5.0
2018-Jun-18 01:01N 40°41' W 074°02'2 4.5
2018-Jun-18 00:30N 40°42' W 073°60'1 2.5
2018-Jun-18 00:01N 40°42' W 074°01'3 6.6
2018-Jun-17 23:31N 40°46' W 074°01'1 1.3
2018-Jun-17 22:59N 40°45' W 074°01'0 0.0
2018-Jun-17 22:23N 40°45' W 074°01'0 0.0
2018-Jun-17 22:00N 40°45' W 074°01'0 0.0
2018-Jun-17 21:30N 40°45' W 074°01'0 0.0
2018-Jun-17 21:00N 40°45' W 074°01'0 0.0
2018-Jun-17 20:31N 40°45' W 074°01'0 0.0
2018-Jun-17 20:01N 40°45' W 074°01'0 0.0
2018-Jun-17 19:30N 40°45' W 074°01'0 0.0
2018-Jun-17 19:00N 40°45' W 074°01'0 0.1
2018-Jun-17 18:30N 40°45' W 074°01'2 2.8
2018-Jun-17 17:59N 40°43' W 074°01'2 4.9
2018-Jun-17 17:31N 40°41' W 074°02'2 4.9
2018-Jun-17 17:01N 40°42' W 073°60'2 3.3
2018-Jun-17 16:30N 40°44' W 074°01'1 2.7
2018-Jun-17 16:01N 40°45' W 074°01'0 0.0
2018-Jun-17 01:55N 40°45' W 074°01'2 3.8
2018-Jun-17 01:31N 40°43' W 074°01'2 4.1
2018-Jun-17 01:01N 40°42' W 074°02'2 4.7
2018-Jun-17 00:31N 40°42' W 073°60'1 2.8
2018-Jun-17 00:01N 40°42' W 074°01'4 7.3
2018-Jun-16 23:31N 40°46' W 074°00'1 0.2
2018-Jun-16 18:11N 40°45' W 074°01'0 0.0
2018-Jun-16 18:00N 40°45' W 074°01'1 2.7
2018-Jun-16 17:30N 40°44' W 074°01'2 4.4
2018-Jun-16 17:00N 40°42' W 074°02'1 2.5
2018-Jun-16 16:30N 40°43' W 074°01'2 4.3
2018-Jun-16 15:58N 40°45' W 074°01'0 0.0
2018-Jun-16 01:52N 40°45' W 074°01'2 4.8
2018-Jun-16 01:30N 40°43' W 074°01'2 4.0
2018-Jun-16 01:00N 40°41' W 074°02'2 4.8
2018-Jun-16 00:30N 40°42' W 073°60'0 1.0
2018-Jun-16 00:00N 40°42' W 073°59'3 5.4
2018-Jun-15 23:30N 40°45' W 074°01'0 0.9
2018-Jun-15 23:00N 40°45' W 074°01'0 0.0
2018-Jun-15 22:27N 40°45' W 074°01'0 0.0
2018-Jun-15 22:00N 40°45' W 074°01'0 0.0
2018-Jun-15 21:25N 40°45' W 074°01'0 0.0
2018-Jun-15 21:00N 40°45' W 074°01'0 0.0
2018-Jun-15 20:18N 40°45' W 074°01'0 0.0
2018-Jun-15 19:37N 40°45' W 074°01'0 0.0
2018-Jun-15 19:29N 40°45' W 074°01'0 0.0
2018-Jun-15 18:45N 40°45' W 074°01'0 0.0
2018-Jun-15 18:20N 40°45' W 074°01'0 0.0
2018-Jun-15 18:00N 40°45' W 074°01'1 3.0
2018-Jun-15 17:30N 40°43' W 074°01'3 5.2
2018-Jun-15 17:00N 40°41' W 074°03'1 3.0
2018-Jun-15 16:30N 40°42' W 074°01'3 5.2
2018-Jun-15 15:59N 40°45' W 074°01'  

Dump ship's entire track history